Terminal Aerodrome Forecast
Issued by NWS Mt. Holly, NJ

Home | Current Version | Previous Version | Text Only | Print | Product List | Glossary On
Versions: 1 2 3 4 5 6 7 8 9 10 11 12 13 14 15 16 17 18 19 20 21 22 23 24 25 26 27 28 29 30 31 32 33 34
000
FTAK31 PANC 220309 AAA
TAFABE
TAF AMD
PABE 220309Z 2203/2224 11005KT P6SM VCSH FEW040 BKN060 BKN090
      TEMPO 2203/2206 4SM -RA BR BKN035
     FM220600 VRB04KT P6SM VCSH SCT040 BKN060=

USA.gov is the U.S. government's official web portal to all federal, state and local government web resources and services.